createdAt,value
2022-10-26T00:00:20.246Z,8.90
2022-10-26T00:02:55.664Z,8.88
2022-10-26T00:05:24.424Z,8.70
2022-10-26T00:08:05.309Z,11.20
2022-10-26T00:10:35.933Z,8.80
2022-10-26T00:13:09.076Z,9.35
2022-10-26T00:15:40.424Z,8.88
2022-10-26T00:18:08.584Z,9.27
2022-10-26T00:20:36.834Z,7.78
2022-10-26T00:23:05.021Z,8.13
2022-10-26T00:25:33.147Z,10.38
2022-10-26T00:28:01.491Z,8.55
2022-10-26T00:30:31.083Z,8.93
2022-10-26T00:32:59.245Z,7.65
2022-10-26T00:35:44.654Z,8.30
2022-10-26T00:38:13.538Z,9.02
2022-10-26T00:40:42.037Z,9.57
2022-10-26T00:43:17.301Z,7.75
2022-10-26T00:45:48.355Z,6.75
2022-10-26T00:48:24.850Z,9.00
2022-10-26T00:50:55.369Z,8.85
2022-10-26T00:53:24.026Z,7.78
2022-10-26T00:55:54.684Z,8.43
2022-10-26T00:58:24.100Z,7.80
2022-10-26T01:00:54.438Z,7.75
2022-10-26T01:03:25.275Z,7.95
2022-10-26T01:05:56.794Z,8.32
2022-10-26T01:08:25.560Z,9.73
2022-10-26T01:10:53.921Z,7.38
2022-10-26T01:13:22.456Z,8.77
2022-10-26T01:15:57.905Z,8.20
2022-10-26T01:18:36.302Z,7.93
2022-10-26T01:21:40.521Z,7.88
2022-10-26T01:24:33.630Z,7.68
2022-10-26T01:27:33.387Z,8.27
2022-10-26T01:30:28.023Z,7.30
2022-10-26T01:33:22.344Z,7.20
2022-10-26T01:35:59.435Z,7.85
2022-10-26T01:38:34.293Z,8.25
2022-10-26T01:41:09.950Z,7.63
2022-10-26T01:43:43.620Z,7.40
2022-10-26T01:46:14.473Z,7.93
2022-10-26T01:51:14.153Z,8.15
2022-10-26T01:53:47.685Z,8.13
2022-10-26T01:56:21.401Z,8.65
2022-10-26T01:59:08.262Z,9.23
2022-10-26T02:02:16.474Z,7.30
2022-10-26T02:04:55.274Z,7.88
2022-10-26T02:07:31.761Z,7.18
2022-10-26T02:10:08.678Z,8.10
2022-10-26T02:12:43.174Z,8.50
2022-10-26T02:15:18.942Z,8.65
2022-10-26T02:17:52.810Z,8.32
2022-10-26T02:20:26.049Z,7.93
2022-10-26T02:22:56.642Z,7.43
2022-10-26T02:25:29.791Z,7.88
2022-10-26T02:28:01.414Z,10.05
2022-10-26T02:30:29.985Z,8.35
2022-10-26T02:33:00.255Z,7.40
2022-10-26T02:35:30.817Z,9.23
2022-10-26T02:38:02.905Z,8.65
2022-10-26T02:40:33.134Z,6.95
2022-10-26T02:43:05.544Z,6.87
2022-10-26T02:45:38.805Z,7.70
2022-10-26T02:48:08.782Z,7.43
2022-10-26T02:50:44.436Z,7.78
2022-10-26T02:53:19.745Z,9.15
2022-10-26T02:55:50.845Z,6.55
2022-10-26T02:58:24.836Z,8.02
2022-10-26T03:00:56.682Z,7.65
2022-10-26T03:03:26.369Z,7.20
2022-10-26T03:05:54.647Z,7.80
2022-10-26T03:08:22.834Z,7.85
2022-10-26T03:10:50.941Z,7.35
2022-10-26T03:13:19.109Z,7.00
2022-10-26T03:15:47.396Z,9.38
2022-10-26T03:18:15.602Z,7.25
2022-10-26T03:20:46.839Z,6.53
2022-10-26T03:23:15.212Z,8.77
2022-10-26T03:25:49.302Z,8.20
2022-10-26T03:28:17.488Z,8.07
2022-10-26T03:30:45.594Z,7.63
2022-10-26T03:33:14.575Z,8.27
2022-10-26T03:35:42.765Z,8.15
2022-10-26T03:38:15.888Z,8.70
2022-10-26T03:40:48.512Z,7.05
2022-10-26T03:43:16.794Z,8.45
2022-10-26T03:45:44.968Z,7.35
2022-10-26T03:48:13.294Z,8.27
2022-10-26T03:50:41.445Z,7.07
2022-10-26T03:53:11.126Z,8.32
2022-10-26T03:55:39.270Z,7.53
2022-10-26T03:58:07.386Z,7.65
2022-10-26T04:00:35.532Z,7.80
2022-10-26T04:03:03.793Z,7.30
2022-10-26T04:05:32.171Z,7.15
2022-10-26T04:08:03.115Z,7.43
2022-10-26T04:13:01.366Z,9.15
2022-10-26T04:15:30.491Z,8.68
2022-10-26T04:17:59.254Z,8.63
2022-10-26T04:20:28.518Z,6.47
2022-10-26T04:23:00.964Z,9.05
2022-10-26T04:25:32.717Z,8.60
2022-10-26T04:28:04.658Z,7.75
2022-10-26T04:30:33.658Z,7.32
2022-10-26T04:33:01.835Z,7.13
2022-10-26T04:35:30.251Z,6.72
2022-10-26T04:38:02.177Z,7.05
2022-10-26T04:40:30.671Z,7.72
2022-10-26T04:42:58.839Z,7.35
2022-10-26T04:45:31.254Z,8.30
2022-10-26T04:48:04.800Z,7.63
2022-10-26T04:50:33.301Z,7.88
2022-10-26T04:53:01.474Z,7.07
2022-10-26T04:55:29.623Z,9.27
2022-10-26T04:58:00.403Z,8.15
2022-10-26T05:00:32.986Z,9.15
2022-10-26T05:03:01.796Z,7.10
2022-10-26T05:05:31.703Z,7.55
2022-10-26T05:07:59.943Z,6.85
2022-10-26T05:10:28.648Z,7.72
2022-10-26T05:12:59.328Z,7.05
2022-10-26T05:15:28.875Z,8.95
2022-10-26T05:17:59.270Z,7.63
2022-10-26T05:20:30.108Z,7.13
2022-10-26T05:23:03.427Z,8.82
2022-10-26T05:25:33.375Z,11.07
2022-10-26T05:28:02.108Z,7.43
2022-10-26T05:30:31.186Z,11.73
2022-10-26T05:33:03.094Z,11.07
2022-10-26T05:35:31.828Z,8.20
2022-10-26T05:38:00.318Z,9.13
2022-10-26T05:40:38.743Z,7.40
2022-10-26T05:43:07.203Z,8.45
2022-10-26T05:45:35.328Z,10.55
2022-10-26T05:48:05.082Z,7.82
2022-10-26T05:50:33.249Z,15.82
2022-10-26T05:53:01.447Z,10.98
2022-10-26T05:55:31.919Z,9.32
2022-10-26T05:58:00.584Z,8.05
2022-10-26T06:00:30.668Z,12.27
2022-10-26T06:03:22.896Z,6.50
2022-10-26T06:05:54.860Z,8.57
2022-10-26T06:08:24.789Z,12.80
2022-10-26T06:10:54.009Z,10.48
2022-10-26T06:13:22.958Z,10.05
2022-10-26T06:16:12.946Z,9.90
2022-10-26T06:18:48.814Z,7.65
2022-10-26T06:21:33.142Z,11.32
2022-10-26T06:24:09.946Z,10.30
2022-10-26T06:26:46.962Z,8.10
2022-10-26T06:29:24.648Z,9.73
2022-10-26T06:31:52.879Z,8.90
2022-10-26T06:34:28.170Z,13.48
2022-10-26T06:36:57.611Z,7.68
2022-10-26T06:39:29.799Z,8.95
2022-10-26T06:41:59.195Z,10.63
2022-10-26T06:44:27.827Z,9.52
2022-10-26T06:47:06.103Z,11.02
2022-10-26T06:49:39.407Z,10.30
2022-10-26T06:52:14.568Z,9.05
2022-10-26T06:54:49.895Z,9.80
2022-10-26T06:57:19.517Z,10.25
2022-10-26T06:59:51.566Z,11.35
2022-10-26T07:02:20.343Z,8.63
2022-10-26T07:04:50.038Z,9.85
2022-10-26T07:07:21.071Z,10.32
2022-10-26T07:09:49.694Z,10.15
2022-10-26T07:12:18.205Z,10.40
2022-10-26T07:14:46.386Z,9.80
2022-10-26T07:17:14.703Z,7.88
2022-10-26T07:19:44.706Z,9.00
2022-10-26T07:22:14.392Z,7.73
2022-10-26T07:24:42.485Z,11.45
2022-10-26T07:27:10.638Z,12.38
2022-10-26T07:29:39.671Z,10.70
2022-10-26T07:32:08.202Z,10.00
2022-10-26T07:34:36.323Z,11.27
2022-10-26T07:37:04.526Z,8.45
2022-10-26T07:39:34.098Z,10.25
2022-10-26T07:42:05.061Z,8.70
2022-10-26T07:47:03.937Z,8.68
2022-10-26T07:52:00.206Z,8.82
2022-10-26T07:54:28.345Z,8.32
2022-10-26T07:56:58.096Z,9.30
2022-10-26T07:59:26.371Z,7.30
2022-10-26T08:01:54.747Z,7.72
2022-10-26T08:04:22.977Z,8.75
2022-10-26T08:06:51.123Z,7.82
2022-10-26T08:09:20.413Z,9.90
2022-10-26T08:11:48.612Z,8.10
2022-10-26T08:14:21.176Z,7.93
2022-10-26T08:16:52.515Z,10.10
2022-10-26T08:19:24.198Z,10.45
2022-10-26T08:21:52.346Z,9.55
2022-10-26T08:24:20.493Z,8.80
2022-10-26T08:26:48.705Z,7.82
2022-10-26T08:29:16.841Z,7.32
2022-10-26T08:32:01.988Z,9.82
2022-10-26T08:34:30.127Z,8.07
2022-10-26T08:36:58.316Z,7.63
2022-10-26T08:39:28.530Z,9.00
2022-10-26T08:42:03.238Z,10.50
2022-10-26T08:44:38.548Z,11.18
2022-10-26T08:47:15.850Z,10.30
2022-10-26T08:49:49.827Z,9.30
2022-10-26T08:52:24.505Z,6.60
2022-10-26T08:54:55.338Z,8.98
2022-10-26T08:57:28.895Z,9.60
2022-10-26T09:00:04.147Z,8.60
2022-10-26T09:02:33.909Z,9.05
2022-10-26T09:05:02.271Z,8.35
2022-10-26T09:07:53.777Z,12.93
2022-10-26T09:10:35.964Z,8.00
2022-10-26T09:13:10.123Z,6.88
2022-10-26T09:15:52.774Z,8.85
2022-10-26T09:18:36.366Z,7.38
2022-10-26T09:21:15.193Z,9.02
2022-10-26T09:23:57.936Z,8.52
2022-10-26T09:26:32.979Z,9.05
2022-10-26T09:29:05.922Z,8.52
2022-10-26T09:31:43.257Z,9.60
2022-10-26T09:34:21.784Z,7.53
2022-10-26T09:36:54.540Z,8.85
2022-10-26T09:39:31.036Z,8.57
2022-10-26T09:42:02.295Z,9.35
2022-10-26T09:44:35.601Z,9.57
2022-10-26T09:47:07.632Z,8.23
2022-10-26T09:49:42.546Z,6.63
2022-10-26T09:54:39.791Z,7.10
2022-10-26T09:57:09.928Z,11.68
2022-10-26T09:59:41.850Z,9.43
2022-10-26T10:02:37.808Z,8.27
2022-10-26T10:08:18.615Z,11.27
2022-10-26T10:11:06.465Z,8.40
2022-10-26T10:13:37.167Z,6.57
2022-10-26T10:16:12.234Z,7.03
2022-10-26T10:18:42.298Z,9.85
2022-10-26T10:21:14.271Z,8.90
2022-10-26T10:23:52.165Z,7.22
2022-10-26T10:26:20.671Z,9.02
2022-10-26T10:28:59.438Z,7.95
2022-10-26T10:31:32.039Z,9.85
2022-10-26T10:34:00.207Z,8.35
2022-10-26T10:36:31.749Z,8.38
2022-10-26T10:39:02.040Z,9.73
2022-10-26T10:41:35.784Z,9.00
2022-10-26T10:44:09.055Z,8.60
2022-10-26T10:46:38.699Z,8.65
2022-10-26T10:49:17.683Z,8.95
2022-10-26T10:51:46.315Z,8.63
2022-10-26T10:54:25.921Z,7.60
2022-10-26T10:56:57.805Z,11.20
2022-10-26T10:59:50.327Z,8.52
2022-10-26T11:02:54.002Z,9.98
2022-10-26T11:05:39.547Z,8.73
2022-10-26T11:08:14.286Z,10.13
2022-10-26T11:10:51.347Z,7.60
2022-10-26T11:13:24.939Z,10.32
2022-10-26T11:16:00.023Z,8.43
2022-10-26T11:18:36.418Z,9.57
2022-10-26T11:21:10.955Z,9.40
2022-10-26T11:23:45.915Z,8.85
2022-10-26T11:26:20.425Z,8.15
2022-10-26T11:28:54.333Z,9.25
2022-10-26T11:31:26.356Z,9.70
2022-10-26T11:34:09.427Z,9.82
2022-10-26T11:36:39.772Z,7.50
2022-10-26T11:39:18.826Z,8.57
2022-10-26T11:41:52.487Z,10.93
2022-10-26T11:44:25.977Z,8.93
2022-10-26T11:46:57.750Z,9.43
2022-10-26T11:49:32.481Z,11.68
2022-10-26T11:52:07.163Z,11.70
2022-10-26T11:54:39.812Z,11.73
2022-10-26T11:57:11.582Z,11.10
2022-10-26T11:59:45.261Z,7.68
2022-10-26T12:02:17.394Z,10.35
2022-10-26T12:04:48.874Z,9.85
2022-10-26T12:07:23.183Z,14.88
2022-10-26T12:09:52.557Z,10.32
2022-10-26T12:12:28.153Z,9.38
2022-10-26T12:15:04.530Z,13.48
2022-10-26T12:17:40.172Z,10.43
2022-10-26T12:20:26.405Z,9.02
2022-10-26T12:22:54.885Z,10.57
2022-10-26T12:25:23.576Z,10.98
2022-10-26T12:27:55.423Z,12.15
2022-10-26T12:30:31.589Z,13.05
2022-10-26T12:33:01.746Z,10.98
2022-10-26T12:35:44.857Z,9.33
2022-10-26T12:38:51.767Z,9.27
2022-10-26T12:41:22.888Z,10.65
2022-10-26T12:44:00.363Z,18.60
2022-10-26T12:46:45.311Z,11.60
2022-10-26T12:49:56.940Z,11.25
2022-10-26T12:52:41.464Z,11.20
2022-10-26T12:55:41.248Z,10.30
2022-10-26T12:58:41.691Z,14.40
2022-10-26T13:01:47.833Z,9.40
2022-10-26T13:04:46.089Z,13.07
2022-10-26T13:07:23.286Z,12.10
2022-10-26T13:10:19.914Z,13.60
2022-10-26T13:12:51.041Z,10.57
2022-10-26T13:15:25.774Z,11.88
2022-10-26T13:18:01.968Z,9.18
2022-10-26T13:20:32.810Z,12.00
2022-10-26T13:25:34.643Z,8.68
2022-10-26T13:28:06.904Z,12.57
2022-10-26T13:30:45.959Z,17.00
2022-10-26T13:33:27.641Z,14.15
2022-10-26T13:36:00.262Z,12.90
2022-10-26T13:38:33.428Z,10.53
2022-10-26T13:41:09.432Z,10.90
2022-10-26T13:43:38.683Z,13.70
2022-10-26T13:46:07.408Z,8.75
2022-10-26T13:48:40.392Z,10.77
2022-10-26T13:51:20.427Z,12.75
2022-10-26T13:53:53.090Z,11.90
2022-10-26T13:56:30.901Z,10.57
2022-10-26T13:59:03.057Z,13.07
2022-10-26T14:01:32.000Z,13.23
2022-10-26T14:04:15.140Z,12.43
2022-10-26T14:06:48.217Z,10.93
2022-10-26T14:09:18.093Z,11.85
2022-10-26T14:11:51.019Z,11.27
2022-10-26T14:14:22.143Z,11.00
2022-10-26T14:16:51.317Z,10.45
2022-10-26T14:19:27.014Z,9.25
2022-10-26T14:21:55.990Z,10.82
2022-10-26T14:24:45.302Z,10.10
2022-10-26T14:27:17.328Z,12.30
2022-10-26T14:29:58.387Z,10.18
2022-10-26T14:32:35.705Z,13.88
2022-10-26T14:35:05.486Z,11.23
2022-10-26T14:37:41.744Z,12.20
2022-10-26T14:40:18.450Z,14.20
2022-10-26T14:42:51.363Z,14.05
2022-10-26T14:45:46.898Z,9.75
2022-10-26T14:48:22.595Z,10.00
2022-10-26T14:51:07.751Z,10.25
2022-10-26T14:53:39.580Z,11.13
2022-10-26T14:56:20.838Z,9.05
2022-10-26T14:58:49.161Z,9.10
2022-10-26T15:01:35.848Z,9.23
2022-10-26T15:04:06.585Z,9.18
2022-10-26T15:06:41.862Z,13.60
2022-10-26T15:09:32.066Z,14.23
2022-10-26T15:12:02.908Z,16.85
2022-10-26T15:14:31.279Z,16.25
2022-10-26T15:17:00.410Z,15.80
2022-10-26T15:19:29.094Z,18.73
2022-10-26T15:21:59.093Z,15.82
2022-10-26T15:24:37.539Z,12.30
2022-10-26T15:27:15.973Z,12.30
2022-10-26T15:29:45.839Z,13.13
2022-10-26T15:32:28.774Z,11.57
2022-10-26T15:35:28.638Z,13.50
2022-10-26T15:38:00.745Z,10.35
2022-10-26T15:40:30.903Z,11.18
2022-10-26T15:43:01.952Z,18.97
2022-10-26T15:48:01.579Z,16.80
2022-10-26T15:50:30.355Z,17.80
2022-10-26T15:53:02.654Z,14.75
2022-10-26T15:55:32.010Z,15.68
2022-10-26T15:58:00.201Z,18.35
2022-10-26T16:00:28.418Z,17.80
2022-10-26T16:02:57.086Z,10.85
2022-10-26T16:05:25.362Z,12.02
2022-10-26T16:07:53.806Z,13.68
2022-10-26T16:10:24.954Z,13.93
2022-10-26T16:12:53.605Z,14.52
2022-10-26T16:15:23.709Z,13.00
2022-10-26T16:17:52.764Z,13.10
2022-10-26T16:20:23.922Z,14.25
2022-10-26T16:25:24.932Z,12.85
2022-10-26T16:27:54.123Z,12.02
2022-10-26T16:30:24.842Z,11.23
2022-10-26T16:32:56.409Z,12.82
2022-10-26T16:35:24.671Z,10.50
2022-10-26T16:37:52.769Z,17.92
2022-10-26T16:40:20.953Z,11.98
2022-10-26T16:42:50.730Z,11.65
2022-10-26T16:45:19.324Z,15.48
2022-10-26T16:47:49.425Z,12.13
2022-10-26T16:50:20.503Z,14.40
2022-10-26T16:52:48.772Z,13.23
2022-10-26T16:55:17.314Z,12.65
2022-10-26T16:57:45.541Z,11.02
2022-10-26T17:00:15.687Z,13.20
2022-10-26T17:02:43.911Z,13.43
2022-10-26T17:05:12.184Z,11.82
2022-10-26T17:07:40.596Z,10.27
2022-10-26T17:10:09.218Z,11.77
2022-10-26T17:12:37.403Z,11.90
2022-10-26T17:15:05.965Z,10.43
2022-10-26T17:17:35.360Z,8.95
2022-10-26T17:20:03.531Z,10.07
2022-10-26T17:22:31.650Z,10.23
2022-10-26T17:24:59.809Z,8.13
2022-10-26T17:27:28.013Z,13.23
2022-10-26T17:29:56.247Z,9.15
2022-10-26T17:32:24.385Z,12.20
2022-10-26T17:34:53.900Z,8.43
2022-10-26T17:37:22.263Z,8.10
2022-10-26T17:39:50.503Z,11.20
2022-10-26T17:42:18.617Z,8.30
2022-10-26T17:44:46.704Z,12.13
2022-10-26T17:47:15.006Z,10.13
2022-10-26T17:49:43.220Z,10.70
2022-10-26T17:52:12.821Z,9.48
2022-10-26T17:54:40.899Z,10.77
2022-10-26T17:57:08.947Z,10.75
2022-10-26T17:59:37.073Z,8.82
2022-10-26T18:02:05.375Z,9.60
2022-10-26T18:04:34.009Z,10.68
2022-10-26T18:07:02.218Z,9.73
2022-10-26T18:09:31.733Z,11.45
2022-10-26T18:11:59.822Z,9.55
2022-10-26T18:14:27.956Z,9.35
2022-10-26T18:16:56.171Z,11.50
2022-10-26T18:19:24.444Z,10.43
2022-10-26T18:21:52.628Z,9.88
2022-10-26T18:24:20.729Z,7.93
2022-10-26T18:26:50.178Z,8.88
2022-10-26T18:29:18.445Z,8.50
2022-10-26T18:31:46.621Z,9.10
2022-10-26T18:34:14.729Z,8.13
2022-10-26T18:36:42.854Z,8.07
2022-10-26T18:39:11.110Z,9.90
2022-10-26T18:41:39.290Z,10.93
2022-10-26T18:44:10.303Z,8.70
2022-10-26T18:46:42.587Z,13.25
2022-10-26T18:49:11.152Z,8.32
2022-10-26T18:51:39.339Z,10.82
2022-10-26T18:54:07.519Z,10.68
2022-10-26T18:56:35.748Z,11.30
2022-10-26T18:59:03.847Z,9.27
2022-10-26T19:01:35.160Z,10.60
2022-10-26T19:04:05.867Z,11.65
2022-10-26T19:06:35.676Z,8.77
2022-10-26T19:09:05.042Z,7.45
2022-10-26T19:11:33.462Z,9.40
2022-10-26T19:14:01.578Z,10.73
2022-10-26T19:16:48.165Z,11.18
2022-10-26T19:19:18.791Z,13.60
2022-10-26T19:21:48.185Z,7.05
2022-10-26T19:24:18.817Z,9.48
2022-10-26T19:26:48.015Z,9.68
2022-10-26T19:29:17.528Z,9.27
2022-10-26T19:31:46.884Z,7.60
2022-10-26T19:34:17.541Z,9.55
2022-10-26T19:36:46.937Z,9.40
2022-10-26T19:39:16.281Z,8.80
2022-10-26T19:41:44.853Z,8.15
2022-10-26T19:44:14.447Z,9.30
2022-10-26T19:46:43.803Z,7.57
2022-10-26T19:49:13.591Z,9.10
2022-10-26T19:51:43.106Z,10.40
2022-10-26T19:54:11.363Z,8.30
2022-10-26T19:56:39.557Z,11.55
2022-10-26T19:59:09.259Z,7.40
2022-10-26T20:01:37.379Z,9.30
2022-10-26T20:04:06.331Z,9.07
2022-10-26T20:06:34.642Z,12.15
2022-10-26T20:09:04.595Z,9.88
2022-10-26T20:11:35.115Z,9.20
2022-10-26T20:14:03.307Z,7.57
2022-10-26T20:16:31.482Z,7.55
2022-10-26T20:19:01.977Z,7.95
2022-10-26T20:21:30.094Z,7.05
2022-10-26T20:23:58.402Z,9.73
2022-10-26T20:26:28.671Z,8.70
2022-10-26T20:28:57.198Z,11.85
2022-10-26T20:31:25.386Z,9.52
2022-10-26T20:33:54.117Z,8.07
2022-10-26T20:36:22.637Z,8.32
2022-10-26T20:38:51.308Z,9.10
2022-10-26T20:41:20.028Z,9.93
2022-10-26T20:43:53.259Z,9.63
2022-10-26T20:46:25.627Z,6.60
2022-10-26T20:48:54.934Z,7.65
2022-10-26T20:51:38.558Z,8.93
2022-10-26T20:54:15.391Z,6.15
2022-10-26T20:56:44.921Z,9.00
2022-10-26T20:59:23.396Z,7.88
2022-10-26T21:01:51.650Z,7.05
2022-10-26T21:04:19.765Z,9.90
2022-10-26T21:06:47.909Z,8.45
2022-10-26T21:09:16.118Z,10.63
2022-10-26T21:11:45.499Z,7.57
2022-10-26T21:14:15.105Z,11.07
2022-10-26T21:16:43.305Z,7.50
2022-10-26T21:19:11.386Z,6.20
2022-10-26T21:21:39.516Z,7.13
2022-10-26T21:24:08.055Z,9.52
2022-10-26T21:26:36.195Z,7.68
2022-10-26T21:29:04.812Z,7.38
2022-10-26T21:31:34.526Z,7.75
2022-10-26T21:34:02.698Z,7.65
2022-10-26T21:36:30.782Z,8.80
2022-10-26T21:38:59.007Z,7.35
2022-10-26T21:41:27.076Z,10.80
2022-10-26T21:44:03.494Z,7.53
2022-10-26T21:46:39.393Z,8.38
2022-10-26T21:49:08.082Z,7.72
2022-10-26T21:51:36.223Z,7.45
2022-10-26T21:54:04.900Z,8.32
2022-10-26T21:56:33.133Z,7.82
2022-10-26T21:59:01.986Z,6.38
2022-10-26T22:01:30.239Z,8.20
2022-10-26T22:04:00.108Z,6.18
2022-10-26T22:06:28.224Z,6.35
2022-10-26T22:08:56.330Z,7.18
2022-10-26T22:11:25.493Z,6.72
2022-10-26T22:13:54.734Z,6.50
2022-10-26T22:16:24.539Z,8.55
2022-10-26T22:18:54.514Z,7.43
2022-10-26T22:21:27.896Z,10.15
2022-10-26T22:23:56.119Z,7.00
2022-10-26T22:26:25.832Z,6.82
2022-10-26T22:28:56.166Z,7.82
2022-10-26T22:31:26.212Z,6.63
2022-10-26T22:33:55.115Z,8.30
2022-10-26T22:36:25.550Z,8.05
2022-10-26T22:38:54.245Z,7.30
2022-10-26T22:41:24.051Z,6.13
2022-10-26T22:43:52.408Z,8.25
2022-10-26T22:46:22.673Z,6.55
2022-10-26T22:48:54.617Z,5.88
2022-10-26T22:51:25.514Z,6.10
2022-10-26T22:56:23.343Z,6.85
2022-10-26T22:58:53.082Z,6.03
2022-10-26T23:01:23.551Z,7.13
2022-10-26T23:03:53.159Z,6.93
2022-10-26T23:06:21.686Z,6.30
2022-10-26T23:08:51.253Z,6.03
2022-10-26T23:11:21.875Z,6.20
2022-10-26T23:13:53.186Z,5.57
2022-10-26T23:16:21.760Z,9.18
2022-10-26T23:18:50.251Z,7.03
2022-10-26T23:21:18.807Z,6.72
2022-10-26T23:23:47.029Z,8.10
2022-10-26T23:26:19.153Z,7.70
2022-10-26T23:28:47.396Z,6.45
2022-10-26T23:31:17.205Z,6.32
2022-10-26T23:33:46.264Z,6.90
2022-10-26T23:36:14.639Z,6.72
2022-10-26T23:38:42.752Z,7.40
2022-10-26T23:41:12.878Z,5.70
2022-10-26T23:43:43.138Z,7.47
2022-10-26T23:46:11.522Z,5.50
2022-10-26T23:48:39.797Z,7.70
2022-10-26T23:51:08.031Z,7.30
2022-10-26T23:53:36.261Z,6.50
2022-10-26T23:56:04.365Z,7.43
2022-10-26T23:58:32.496Z,6.57
